sensor_id;sensor_type;location;lat;lon;timestamp;pressure;altitude;pressure_sealevel;temperature;humidity
58245;BME280;44550;43.864;25.986;2022-12-26T00:01:28;102249.03;;;3.85;99.71
58245;BME280;44550;43.864;25.986;2022-12-26T00:05:30;102245.56;;;3.69;99.79
58245;BME280;44550;43.864;25.986;2022-12-26T00:09:32;102250.19;;;3.75;99.95
58245;BME280;44550;43.864;25.986;2022-12-26T00:13:31;102263.22;;;3.91;99.37
58245;BME280;44550;43.864;25.986;2022-12-26T00:17:37;102256.09;;;3.58;98.48
58245;BME280;44550;43.864;25.986;2022-12-26T00:21:38;102262.47;;;3.49;99.04
58245;BME280;44550;43.864;25.986;2022-12-26T00:25:37;102252.81;;;3.32;99.41
58245;BME280;44550;43.864;25.986;2022-12-26T00:29:36;102254.56;;;3.18;100.00
58245;BME280;44550;43.864;25.986;2022-12-26T00:33:36;102252.00;;;3.18;100.00
58245;BME280;44550;43.864;25.986;2022-12-26T00:37:38;102256.28;;;3.04;100.00
58245;BME280;44550;43.864;25.986;2022-12-26T00:41:37;102257.41;;;3.23;100.00
58245;BME280;44550;43.864;25.986;2022-12-26T00:45:36;102235.53;;;3.03;100.00
58245;BME280;44550;43.864;25.986;2022-12-26T00:49:35;102256.50;;;2.94;100.00
58245;BME280;44550;43.864;25.986;2022-12-26T00:53:56;102263.34;;;3.07;100.00
58245;BME280;44550;43.864;25.986;2022-12-26T00:57:56;102267.19;;;3.14;100.00
58245;BME280;44550;43.864;25.986;2022-12-26T01:01:55;102268.97;;;3.43;100.00
58245;BME280;44550;43.864;25.986;2022-12-26T01:05:55;102266.94;;;3.67;100.00
58245;BME280;44550;43.864;25.986;2022-12-26T01:09:56;102267.50;;;3.61;100.00
58245;BME280;44550;43.864;25.986;2022-12-26T01:13:55;102260.75;;;3.35;99.42
58245;BME280;44550;43.864;25.986;2022-12-26T01:17:54;102258.53;;;2.98;100.00
58245;BME280;44550;43.864;25.986;2022-12-26T01:21:53;102258.13;;;2.92;100.00
58245;BME280;44550;43.864;25.986;2022-12-26T01:25:54;102245.25;;;2.79;100.00
58245;BME280;44550;43.864;25.986;2022-12-26T01:30:14;102235.72;;;2.65;100.00
58245;BME280;44550;43.864;25.986;2022-12-26T01:34:13;102232.94;;;2.75;100.00
58245;BME280;44550;43.864;25.986;2022-12-26T01:38:12;102228.75;;;2.77;100.00
58245;BME280;44550;43.864;25.986;2022-12-26T01:42:14;102233.00;;;2.90;100.00
58245;BME280;44550;43.864;25.986;2022-12-26T01:46:15;102224.00;;;2.98;100.00
58245;BME280;44550;43.864;25.986;2022-12-26T01:50:18;102233.25;;;2.94;100.00
58245;BME280;44550;43.864;25.986;2022-12-26T01:54:18;102254.84;;;3.23;100.00
58245;BME280;44550;43.864;25.986;2022-12-26T01:58:41;102267.84;;;3.52;100.00
58245;BME280;44550;43.864;25.986;2022-12-26T02:02:42;102264.09;;;3.77;100.00
58245;BME280;44550;43.864;25.986;2022-12-26T02:06:58;102265.63;;;3.73;100.00
58245;BME280;44550;43.864;25.986;2022-12-26T02:10:59;102253.84;;;3.93;100.00
58245;BME280;44550;43.864;25.986;2022-12-26T02:15:05;102250.91;;;4.02;100.00
58245;BME280;44550;43.864;25.986;2022-12-26T02:19:06;102236.28;;;3.58;100.00
58245;BME280;44550;43.864;25.986;2022-12-26T02:27:46;102242.25;;;4.02;100.00
58245;BME280;44550;43.864;25.986;2022-12-26T02:31:52;102245.09;;;4.52;97.82
58245;BME280;44550;43.864;25.986;2022-12-26T02:40:15;102232.75;;;4.32;93.95
58245;BME280;44550;43.864;25.986;2022-12-26T02:44:20;102233.09;;;4.23;94.59
58245;BME280;44550;43.864;25.986;2022-12-26T02:48:41;102230.28;;;4.50;93.94
58245;BME280;44550;43.864;25.986;2022-12-26T02:52:43;102242.66;;;4.86;90.76
58245;BME280;44550;43.864;25.986;2022-12-26T02:57:03;102239.41;;;4.74;89.80
58245;BME280;44550;43.864;25.986;2022-12-26T03:01:21;102239.16;;;4.23;90.77
58245;BME280;44550;43.864;25.986;2022-12-26T03:05:43;102236.09;;;3.99;91.19
58245;BME280;44550;43.864;25.986;2022-12-26T03:10:00;102230.47;;;3.77;92.20
58245;BME280;44550;43.864;25.986;2022-12-26T03:14:18;102227.69;;;3.44;94.10
58245;BME280;44550;43.864;25.986;2022-12-26T03:18:18;102225.78;;;3.27;95.47
58245;BME280;44550;43.864;25.986;2022-12-26T03:22:40;102227.03;;;2.91;97.70
58245;BME280;44550;43.864;25.986;2022-12-26T03:26:42;102234.69;;;2.89;98.91
58245;BME280;44550;43.864;25.986;2022-12-26T03:30:44;102238.97;;;2.89;99.72
58245;BME280;44550;43.864;25.986;2022-12-26T03:34:49;102240.56;;;2.87;100.00
58245;BME280;44550;43.864;25.986;2022-12-26T03:38:51;102247.38;;;2.99;100.00
58245;BME280;44550;43.864;25.986;2022-12-26T03:42:54;102250.38;;;3.20;100.00
58245;BME280;44550;43.864;25.986;2022-12-26T03:47:15;102237.94;;;3.28;100.00
58245;BME280;44550;43.864;25.986;2022-12-26T03:51:37;102243.44;;;3.34;98.92
58245;BME280;44550;43.864;25.986;2022-12-26T03:55:57;102242.47;;;3.32;98.10
58245;BME280;44550;43.864;25.986;2022-12-26T04:00:13;102242.28;;;3.29;96.79
58245;BME280;44550;43.864;25.986;2022-12-26T04:04:29;102243.44;;;3.34;96.33
58245;BME280;44550;43.864;25.986;2022-12-26T04:08:53;102247.03;;;3.36;96.12
58245;BME280;44550;43.864;25.986;2022-12-26T04:13:12;102244.56;;;3.24;95.64
58245;BME280;44550;43.864;25.986;2022-12-26T04:17:33;102243.44;;;3.19;95.67
58245;BME280;44550;43.864;25.986;2022-12-26T04:21:52;102250.47;;;3.22;96.52
58245;BME280;44550;43.864;25.986;2022-12-26T04:26:10;102240.66;;;3.31;95.69
58245;BME280;44550;43.864;25.986;2022-12-26T04:30:31;102242.44;;;3.17;95.47
58245;BME280;44550;43.864;25.986;2022-12-26T04:34:50;102228.78;;;3.05;95.49
58245;BME280;44550;43.864;25.986;2022-12-26T04:39:06;102200.75;;;2.70;97.57
58245;BME280;44550;43.864;25.986;2022-12-26T04:43:23;102245.84;;;2.88;100.00
58245;BME280;44550;43.864;25.986;2022-12-26T04:47:46;102248.66;;;3.06;100.00
58245;BME280;44550;43.864;25.986;2022-12-26T04:51:58;102249.25;;;3.02;100.00
58245;BME280;44550;43.864;25.986;2022-12-26T04:55:58;102251.78;;;2.87;100.00
58245;BME280;44550;43.864;25.986;2022-12-26T04:59:57;102251.28;;;2.93;100.00
58245;BME280;44550;43.864;25.986;2022-12-26T05:03:58;102251.16;;;2.91;100.00
58245;BME280;44550;43.864;25.986;2022-12-26T05:08:16;102255.94;;;2.98;100.00
58245;BME280;44550;43.864;25.986;2022-12-26T05:12:35;102261.78;;;3.24;100.00
58245;BME280;44550;43.864;25.986;2022-12-26T05:16:35;102264.81;;;3.60;100.00
58245;BME280;44550;43.864;25.986;2022-12-26T05:20:53;102270.53;;;3.84;97.91
58245;BME280;44550;43.864;25.986;2022-12-26T05:25:10;102275.81;;;4.15;95.12
58245;BME280;44550;43.864;25.986;2022-12-26T05:29:29;102280.06;;;4.29;91.74
58245;BME280;44550;43.864;25.986;2022-12-26T05:33:29;102277.13;;;4.38;92.06
58245;BME280;44550;43.864;25.986;2022-12-26T05:37:47;102293.19;;;4.32;91.59
58245;BME280;44550;43.864;25.986;2022-12-26T05:41:46;102291.69;;;4.21;91.32
58245;BME280;44550;43.864;25.986;2022-12-26T05:45:46;102289.28;;;4.09;89.88
58245;BME280;44550;43.864;25.986;2022-12-26T05:49:45;102279.38;;;4.02;90.15
58245;BME280;44550;43.864;25.986;2022-12-26T05:53:46;102275.34;;;3.92;90.65
58245;BME280;44550;43.864;25.986;2022-12-26T05:57:46;102278.41;;;3.85;90.76
58245;BME280;44550;43.864;25.986;2022-12-26T06:01:45;102276.59;;;3.55;91.68
58245;BME280;44550;43.864;25.986;2022-12-26T06:05:45;102268.84;;;3.26;93.18
58245;BME280;44550;43.864;25.986;2022-12-26T06:09:46;102274.91;;;3.27;94.73
58245;BME280;44550;43.864;25.986;2022-12-26T06:13:45;102287.44;;;3.49;95.29
58245;BME280;44550;43.864;25.986;2022-12-26T06:17:45;102288.13;;;3.74;95.04
58245;BME280;44550;43.864;25.986;2022-12-26T06:21:44;102296.00;;;3.91;94.82
58245;BME280;44550;43.864;25.986;2022-12-26T06:25:54;102297.66;;;4.20;94.64
58245;BME280;44550;43.864;25.986;2022-12-26T06:29:53;102300.50;;;4.54;91.95
58245;BME280;44550;43.864;25.986;2022-12-26T06:33:53;102294.78;;;4.76;88.30
58245;BME280;44550;43.864;25.986;2022-12-26T06:37:53;102302.00;;;4.82;87.78
58245;BME280;44550;43.864;25.986;2022-12-26T06:41:55;102299.78;;;4.73;88.29
58245;BME280;44550;43.864;25.986;2022-12-26T06:45:54;102285.69;;;4.99;89.38
58245;BME280;44550;43.864;25.986;2022-12-26T06:49:54;102272.16;;;5.54;89.08
58245;BME280;44550;43.864;25.986;2022-12-26T06:53:53;102266.84;;;6.19;86.30
58245;BME280;44550;43.864;25.986;2022-12-26T06:57:55;102265.25;;;6.58;83.70
58245;BME280;44550;43.864;25.986;2022-12-26T07:01:54;102278.56;;;7.21;81.07
58245;BME280;44550;43.864;25.986;2022-12-26T07:05:54;102280.28;;;7.60;78.15
58245;BME280;44550;43.864;25.986;2022-12-26T07:09:53;102279.72;;;7.67;77.05
58245;BME280;44550;43.864;25.986;2022-12-26T07:13:55;102277.78;;;7.42;78.41
58245;BME280;44550;43.864;25.986;2022-12-26T07:17:54;102288.56;;;7.32;78.73
58245;BME280;44550;43.864;25.986;2022-12-26T07:21:53;102282.97;;;6.85;79.80
58245;BME280;44550;43.864;25.986;2022-12-26T07:25:53;102281.09;;;6.63;81.62
58245;BME280;44550;43.864;25.986;2022-12-26T07:29:54;102280.38;;;6.30;83.36
58245;BME280;44550;43.864;25.986;2022-12-26T07:33:54;102288.06;;;6.28;84.63
58245;BME280;44550;43.864;25.986;2022-12-26T07:37:53;102296.50;;;6.06;86.52
58245;BME280;44550;43.864;25.986;2022-12-26T07:41:53;102305.19;;;6.07;87.05
58245;BME280;44550;43.864;25.986;2022-12-26T07:45:58;102304.94;;;6.37;87.73
58245;BME280;44550;43.864;25.986;2022-12-26T07:49:57;102307.59;;;6.74;86.53
58245;BME280;44550;43.864;25.986;2022-12-26T07:53:56;102305.13;;;7.14;83.90
58245;BME280;44550;43.864;25.986;2022-12-26T07:57:55;102302.81;;;7.40;83.05
58245;BME280;44550;43.864;25.986;2022-12-26T08:01:57;102299.25;;;7.57;81.84
58245;BME280;44550;43.864;25.986;2022-12-26T08:06:00;102298.81;;;7.87;81.22
58245;BME280;44550;43.864;25.986;2022-12-26T08:10:00;102286.06;;;8.35;80.76
58245;BME280;44550;43.864;25.986;2022-12-26T08:13:59;102276.81;;;8.64;79.18
58245;BME280;44550;43.864;25.986;2022-12-26T08:18:00;102286.50;;;8.89;79.14
58245;BME280;44550;43.864;25.986;2022-12-26T08:22:00;102282.56;;;9.00;78.23
58245;BME280;44550;43.864;25.986;2022-12-26T08:26:02;102279.47;;;8.43;77.60
58245;BME280;44550;43.864;25.986;2022-12-26T08:30:02;102283.88;;;7.42;81.20
58245;BME280;44550;43.864;25.986;2022-12-26T08:34:03;102280.94;;;6.97;82.66
58245;BME280;44550;43.864;25.986;2022-12-26T08:38:03;102278.09;;;7.11;82.93
58245;BME280;44550;43.864;25.986;2022-12-26T08:42:02;102282.28;;;7.07;83.02
58245;BME280;44550;43.864;25.986;2022-12-26T08:46:02;102272.56;;;6.85;84.37
58245;BME280;44550;43.864;25.986;2022-12-26T08:50:05;102273.72;;;7.10;84.23
58245;BME280;44550;43.864;25.986;2022-12-26T08:54:04;102264.63;;;7.39;82.93
58245;BME280;44550;43.864;25.986;2022-12-26T08:58:03;102262.59;;;6.94;84.34
58245;BME280;44550;43.864;25.986;2022-12-26T09:02:03;102263.31;;;7.10;83.94
58245;BME280;44550;43.864;25.986;2022-12-26T09:06:04;102259.28;;;7.36;84.10
58245;BME280;44550;43.864;25.986;2022-12-26T09:10:04;102249.19;;;7.04;85.28
58245;BME280;44550;43.864;25.986;2022-12-26T09:14:03;102260.50;;;7.24;87.02
58245;BME280;44550;43.864;25.986;2022-12-26T09:18:03;102254.13;;;7.57;86.06
58245;BME280;44550;43.864;25.986;2022-12-26T09:22:05;102244.38;;;7.93;84.56
58245;BME280;44550;43.864;25.986;2022-12-26T09:26:23;102246.97;;;7.93;83.93
58245;BME280;44550;43.864;25.986;2022-12-26T09:30:23;102232.31;;;8.16;84.22
58245;BME280;44550;43.864;25.986;2022-12-26T09:34:22;102232.19;;;8.13;83.56
58245;BME280;44550;43.864;25.986;2022-12-26T09:38:24;102240.88;;;8.13;83.78
58245;BME280;44550;43.864;25.986;2022-12-26T09:42:26;102232.13;;;8.34;84.17
58245;BME280;44550;43.864;25.986;2022-12-26T09:46:29;102236.16;;;8.26;84.51
58245;BME280;44550;43.864;25.986;2022-12-26T09:50:30;102229.31;;;8.71;83.10
58245;BME280;44550;43.864;25.986;2022-12-26T09:54:39;102216.34;;;8.97;82.43
58245;BME280;44550;43.864;25.986;2022-12-26T09:58:41;102206.94;;;9.24;81.92
58245;BME280;44550;43.864;25.986;2022-12-26T10:02:45;102208.56;;;9.72;80.04
58245;BME280;44550;43.864;25.986;2022-12-26T10:06:48;102211.91;;;9.68;79.63
58245;BME280;44550;43.864;25.986;2022-12-26T10:10:53;102210.53;;;9.28;80.41
58245;BME280;44550;43.864;25.986;2022-12-26T10:14:56;102200.59;;;9.43;80.59
58245;BME280;44550;43.864;25.986;2022-12-26T10:18:58;102172.53;;;9.61;80.33
58245;BME280;44550;43.864;25.986;2022-12-26T10:27:21;102164.66;;;10.41;75.53
58245;BME280;44550;43.864;25.986;2022-12-26T10:31:24;102159.63;;;10.47;75.41
58245;BME280;44550;43.864;25.986;2022-12-26T10:35:27;102148.03;;;10.69;75.60
58245;BME280;44550;43.864;25.986;2022-12-26T10:39:29;102148.94;;;10.70;75.33
58245;BME280;44550;43.864;25.986;2022-12-26T10:43:32;102143.13;;;10.23;75.89
58245;BME280;44550;43.864;25.986;2022-12-26T10:47:32;102140.25;;;10.14;77.76
58245;BME280;44550;43.864;25.986;2022-12-26T10:51:32;102135.09;;;10.44;76.74
58245;BME280;44550;43.864;25.986;2022-12-26T10:55:33;102127.44;;;10.50;76.73
58245;BME280;44550;43.864;25.986;2022-12-26T10:59:40;102123.47;;;10.34;76.59
58245;BME280;44550;43.864;25.986;2022-12-26T11:03:40;102123.09;;;10.50;77.29
58245;BME280;44550;43.864;25.986;2022-12-26T11:07:53;102117.78;;;10.79;76.47
58245;BME280;44550;43.864;25.986;2022-12-26T11:11:53;102126.59;;;11.13;75.43
58245;BME280;44550;43.864;25.986;2022-12-26T11:15:54;102130.78;;;10.76;76.30
58245;BME280;44550;43.864;25.986;2022-12-26T11:24:23;102116.38;;;10.90;76.29
58245;BME280;44550;43.864;25.986;2022-12-26T11:28:24;102123.22;;;11.51;74.63
58245;BME280;44550;43.864;25.986;2022-12-26T11:32:26;102112.94;;;11.59;73.42
58245;BME280;44550;43.864;25.986;2022-12-26T11:36:26;102117.66;;;11.74;73.73
58245;BME280;44550;43.864;25.986;2022-12-26T11:40:27;102112.84;;;11.91;72.14
58245;BME280;44550;43.864;25.986;2022-12-26T11:44:28;102119.91;;;11.95;72.69
58245;BME280;44550;43.864;25.986;2022-12-26T11:48:30;102104.63;;;12.13;71.79
58245;BME280;44550;43.864;25.986;2022-12-26T11:52:32;102112.34;;;12.48;71.40
58245;BME280;44550;43.864;25.986;2022-12-26T11:56:33;102103.56;;;12.88;69.69
58245;BME280;44550;43.864;25.986;2022-12-26T12:00:32;102107.06;;;12.89;68.79
58245;BME280;44550;43.864;25.986;2022-12-26T12:04:35;102111.13;;;12.73;69.72
58245;BME280;44550;43.864;25.986;2022-12-26T12:08:39;102099.19;;;12.45;70.50
58245;BME280;44550;43.864;25.986;2022-12-26T12:12:43;102098.22;;;12.41;70.11
58245;BME280;44550;43.864;25.986;2022-12-26T12:16:49;102096.59;;;12.46;69.58
58245;BME280;44550;43.864;25.986;2022-12-26T12:20:55;102094.03;;;12.50;68.53
58245;BME280;44550;43.864;25.986;2022-12-26T12:25:02;102096.78;;;12.15;70.76
58245;BME280;44550;43.864;25.986;2022-12-26T12:29:11;102087.72;;;12.01;70.89
58245;BME280;44550;43.864;25.986;2022-12-26T12:33:18;102094.78;;;12.03;71.45
58245;BME280;44550;43.864;25.986;2022-12-26T12:37:25;102096.09;;;12.23;70.87
58245;BME280;44550;43.864;25.986;2022-12-26T12:41:34;102086.22;;;12.53;69.81
58245;BME280;44550;43.864;25.986;2022-12-26T12:45:41;102086.91;;;12.42;69.75
58245;BME280;44550;43.864;25.986;2022-12-26T12:49:48;102085.44;;;12.57;69.65
58245;BME280;44550;43.864;25.986;2022-12-26T12:53:59;102078.69;;;12.69;69.16
58245;BME280;44550;43.864;25.986;2022-12-26T12:58:04;102084.13;;;12.79;67.70
58245;BME280;44550;43.864;25.986;2022-12-26T13:02:08;102086.00;;;12.86;67.65
58245;BME280;44550;43.864;25.986;2022-12-26T13:06:17;102085.41;;;12.55;69.83
58245;BME280;44550;43.864;25.986;2022-12-26T13:10:21;102087.78;;;12.44;70.26
58245;BME280;44550;43.864;25.986;2022-12-26T13:14:22;102092.53;;;12.20;71.15
58245;BME280;44550;43.864;25.986;2022-12-26T13:18:24;102095.81;;;12.10;72.06
58245;BME280;44550;43.864;25.986;2022-12-26T13:22:25;102098.56;;;12.16;72.09
58245;BME280;44550;43.864;25.986;2022-12-26T13:26:47;102090.56;;;12.10;72.86
58245;BME280;44550;43.864;25.986;2022-12-26T13:30:51;102095.00;;;12.14;73.03
58245;BME280;44550;43.864;25.986;2022-12-26T13:34:51;102095.94;;;12.16;73.19
58245;BME280;44550;43.864;25.986;2022-12-26T13:43:15;102096.19;;;12.69;71.82
58245;BME280;44550;43.864;25.986;2022-12-26T13:47:32;102086.94;;;12.89;70.85
58245;BME280;44550;43.864;25.986;2022-12-26T13:51:41;102087.06;;;12.96;70.72
58245;BME280;44550;43.864;25.986;2022-12-26T13:55:41;102086.38;;;13.06;70.51
58245;BME280;44550;43.864;25.986;2022-12-26T13:59:46;102092.56;;;13.11;70.14
58245;BME280;44550;43.864;25.986;2022-12-26T14:03:55;102093.25;;;12.99;70.76
58245;BME280;44550;43.864;25.986;2022-12-26T14:08:02;102087.69;;;12.82;71.40
58245;BME280;44550;43.864;25.986;2022-12-26T14:12:23;102102.88;;;12.55;72.26
58245;BME280;44550;43.864;25.986;2022-12-26T14:16:29;102093.25;;;12.54;72.80
58245;BME280;44550;43.864;25.986;2022-12-26T14:20:36;102090.13;;;12.72;71.97
58245;BME280;44550;43.864;25.986;2022-12-26T14:24:41;102084.19;;;12.82;71.48
58245;BME280;44550;43.864;25.986;2022-12-26T14:28:48;102077.25;;;12.87;71.17
58245;BME280;44550;43.864;25.986;2022-12-26T14:33:00;102081.56;;;12.82;70.92
58245;BME280;44550;43.864;25.986;2022-12-26T14:37:11;102077.03;;;12.75;71.26
58245;BME280;44550;43.864;25.986;2022-12-26T14:41:15;102071.69;;;12.70;71.12
58245;BME280;44550;43.864;25.986;2022-12-26T14:45:41;102077.00;;;12.72;71.11
58245;BME280;44550;43.864;25.986;2022-12-26T14:49:45;102080.50;;;12.74;70.80
58245;BME280;44550;43.864;25.986;2022-12-26T14:53:45;102082.06;;;12.64;70.77
58245;BME280;44550;43.864;25.986;2022-12-26T14:58:18;102091.41;;;12.50;71.75
58245;BME280;44550;43.864;25.986;2022-12-26T15:02:28;102069.94;;;12.25;71.88
58245;BME280;44550;43.864;25.986;2022-12-26T15:06:52;102085.69;;;12.27;73.02
58245;BME280;44550;43.864;25.986;2022-12-26T15:11:04;102082.19;;;12.28;73.02
58245;BME280;44550;43.864;25.986;2022-12-26T15:15:15;102081.25;;;12.24;72.80
58245;BME280;44550;43.864;25.986;2022-12-26T15:32:22;102077.28;;;11.66;74.43
58245;BME280;44550;43.864;25.986;2022-12-26T15:36:24;102067.41;;;11.54;75.69
58245;BME280;44550;43.864;25.986;2022-12-26T15:40:27;102061.94;;;11.45;76.68
58245;BME280;44550;43.864;25.986;2022-12-26T15:44:30;102053.00;;;11.37;77.21
58245;BME280;44550;43.864;25.986;2022-12-26T15:48:38;102056.50;;;11.36;76.90
58245;BME280;44550;43.864;25.986;2022-12-26T15:52:42;102052.06;;;11.33;76.36
58245;BME280;44550;43.864;25.986;2022-12-26T15:56:47;102051.91;;;11.28;76.18
58245;BME280;44550;43.864;25.986;2022-12-26T16:00:48;102047.50;;;11.26;75.73
58245;BME280;44550;43.864;25.986;2022-12-26T16:04:52;102039.63;;;10.91;76.11
58245;BME280;44550;43.864;25.986;2022-12-26T16:09:11;102046.41;;;10.51;77.44
58245;BME280;44550;43.864;25.986;2022-12-26T16:13:14;102031.28;;;10.41;78.04
58245;BME280;44550;43.864;25.986;2022-12-26T16:17:19;102028.97;;;10.52;78.02
58245;BME280;44550;43.864;25.986;2022-12-26T16:26:17;102024.06;;;10.32;79.97
58245;BME280;44550;43.864;25.986;2022-12-26T16:30:19;102035.25;;;10.27;80.38
58245;BME280;44550;43.864;25.986;2022-12-26T16:34:18;102028.03;;;10.20;80.21
58245;BME280;44550;43.864;25.986;2022-12-26T16:38:21;102030.78;;;10.24;81.25
58245;BME280;44550;43.864;25.986;2022-12-26T16:42:29;102034.84;;;10.43;79.94
58245;BME280;44550;43.864;25.986;2022-12-26T16:46:28;102025.56;;;10.54;80.73
58245;BME280;44550;43.864;25.986;2022-12-26T16:50:28;102022.19;;;10.58;81.11
58245;BME280;44550;43.864;25.986;2022-12-26T16:54:29;102016.94;;;10.57;81.09
58245;BME280;44550;43.864;25.986;2022-12-26T16:58:36;102015.78;;;10.47;81.82
58245;BME280;44550;43.864;25.986;2022-12-26T17:02:36;102018.94;;;10.35;82.00
58245;BME280;44550;43.864;25.986;2022-12-26T17:06:39;102016.50;;;10.13;82.94
58245;BME280;44550;43.864;25.986;2022-12-26T17:10:50;102010.66;;;9.63;85.41
58245;BME280;44550;43.864;25.986;2022-12-26T17:14:52;102007.31;;;9.40;87.32
58245;BME280;44550;43.864;25.986;2022-12-26T17:18:52;102004.69;;;9.40;87.51
58245;BME280;44550;43.864;25.986;2022-12-26T17:22:52;102004.47;;;9.32;87.54
58245;BME280;44550;43.864;25.986;2022-12-26T17:27:06;101999.47;;;9.13;88.73
58245;BME280;44550;43.864;25.986;2022-12-26T17:31:12;102005.66;;;8.89;89.67
58245;BME280;44550;43.864;25.986;2022-12-26T17:35:15;102006.25;;;8.81;90.50
58245;BME280;44550;43.864;25.986;2022-12-26T17:39:17;102007.03;;;8.78;90.41
58245;BME280;44550;43.864;25.986;2022-12-26T17:43:24;102003.44;;;8.75;90.35
58245;BME280;44550;43.864;25.986;2022-12-26T17:47:26;102010.25;;;8.71;89.96
58245;BME280;44550;43.864;25.986;2022-12-26T17:51:27;102009.06;;;8.61;90.29
58245;BME280;44550;43.864;25.986;2022-12-26T17:55:27;102024.63;;;8.60;90.22
58245;BME280;44550;43.864;25.986;2022-12-26T17:59:29;102026.06;;;8.76;89.21
58245;BME280;44550;43.864;25.986;2022-12-26T18:03:31;102015.16;;;8.87;88.19
58245;BME280;44550;43.864;25.986;2022-12-26T18:07:30;102009.03;;;8.87;87.45
58245;BME280;44550;43.864;25.986;2022-12-26T18:11:30;102005.72;;;8.65;88.12
58245;BME280;44550;43.864;25.986;2022-12-26T18:15:31;102007.03;;;8.54;88.99
58245;BME280;44550;43.864;25.986;2022-12-26T18:19:33;101999.63;;;8.65;88.86
58245;BME280;44550;43.864;25.986;2022-12-26T18:23:32;101996.38;;;8.72;88.30
58245;BME280;44550;43.864;25.986;2022-12-26T18:27:31;101988.44;;;8.94;87.92
58245;BME280;44550;43.864;25.986;2022-12-26T18:31:31;101989.53;;;9.01;85.84
58245;BME280;44550;43.864;25.986;2022-12-26T18:35:35;101978.94;;;8.97;85.53
58245;BME280;44550;43.864;25.986;2022-12-26T18:39:48;101984.00;;;8.92;85.89
58245;BME280;44550;43.864;25.986;2022-12-26T18:43:48;101978.03;;;8.94;86.26
58245;BME280;44550;43.864;25.986;2022-12-26T18:47:47;101971.53;;;8.83;86.38
58245;BME280;44550;43.864;25.986;2022-12-26T18:51:48;101951.94;;;8.69;86.87
58245;BME280;44550;43.864;25.986;2022-12-26T18:55:48;101947.56;;;8.42;88.37
58245;BME280;44550;43.864;25.986;2022-12-26T18:59:47;101952.69;;;8.17;89.63
58245;BME280;44550;43.864;25.986;2022-12-26T19:03:46;101955.38;;;8.18;89.84
58245;BME280;44550;43.864;25.986;2022-12-26T19:07:48;101944.25;;;8.24;89.19
58245;BME280;44550;43.864;25.986;2022-12-26T19:11:47;101944.44;;;8.29;89.37
58245;BME280;44550;43.864;25.986;2022-12-26T19:15:46;101938.84;;;8.18;88.93
58245;BME280;44550;43.864;25.986;2022-12-26T19:19:46;101942.09;;;7.88;90.50
58245;BME280;44550;43.864;25.986;2022-12-26T19:23:48;101943.13;;;7.69;92.03
58245;BME280;44550;43.864;25.986;2022-12-26T19:27:47;101936.28;;;7.49;93.16
58245;BME280;44550;43.864;25.986;2022-12-26T19:31:47;101929.59;;;7.33;95.02
58245;BME280;44550;43.864;25.986;2022-12-26T19:35:53;101932.03;;;7.28;96.21
58245;BME280;44550;43.864;25.986;2022-12-26T19:39:54;101935.78;;;7.37;96.11
58245;BME280;44550;43.864;25.986;2022-12-26T19:43:54;101939.88;;;7.52;95.70
58245;BME280;44550;43.864;25.986;2022-12-26T19:47:54;101947.03;;;7.58;95.16
58245;BME280;44550;43.864;25.986;2022-12-26T19:51:54;101943.63;;;7.59;93.72
58245;BME280;44550;43.864;25.986;2022-12-26T19:55:55;101940.94;;;7.58;93.15
58245;BME280;44550;43.864;25.986;2022-12-26T19:59:55;101941.25;;;7.43;93.16
58245;BME280;44550;43.864;25.986;2022-12-26T20:03:55;101939.00;;;7.52;92.98
58245;BME280;44550;43.864;25.986;2022-12-26T20:07:54;101947.97;;;7.83;91.36
58245;BME280;44550;43.864;25.986;2022-12-26T20:11:56;101953.44;;;7.90;90.29
58245;BME280;44550;43.864;25.986;2022-12-26T20:15:58;101961.47;;;7.72;87.64
58245;BME280;44550;43.864;25.986;2022-12-26T20:19:58;101957.69;;;7.42;89.06
58245;BME280;44550;43.864;25.986;2022-12-26T20:23:58;101958.84;;;7.27;90.13
58245;BME280;44550;43.864;25.986;2022-12-26T20:28:00;101955.09;;;7.42;89.34
58245;BME280;44550;43.864;25.986;2022-12-26T20:31:59;101953.78;;;7.53;86.98
58245;BME280;44550;43.864;25.986;2022-12-26T20:35:59;101953.41;;;7.21;86.09
58245;BME280;44550;43.864;25.986;2022-12-26T20:40:01;101962.06;;;6.99;85.93
58245;BME280;44550;43.864;25.986;2022-12-26T20:44:02;101967.38;;;6.81;86.99
58245;BME280;44550;43.864;25.986;2022-12-26T20:48:02;101967.97;;;6.55;87.90
58245;BME280;44550;43.864;25.986;2022-12-26T20:52:01;101947.31;;;6.37;89.11
58245;BME280;44550;43.864;25.986;2022-12-26T20:56:01;101960.59;;;6.24;89.54
58245;BME280;44550;43.864;25.986;2022-12-26T21:00:06;101956.34;;;6.06;89.97
58245;BME280;44550;43.864;25.986;2022-12-26T21:04:05;101962.16;;;6.01;90.63
58245;BME280;44550;43.864;25.986;2022-12-26T21:08:05;101957.69;;;5.61;91.21
58245;BME280;44550;43.864;25.986;2022-12-26T21:12:05;101953.28;;;5.40;91.97
58245;BME280;44550;43.864;25.986;2022-12-26T21:16:07;101954.84;;;5.37;92.30
58245;BME280;44550;43.864;25.986;2022-12-26T21:20:07;101948.91;;;5.39;92.02
58245;BME280;44550;43.864;25.986;2022-12-26T21:24:07;101955.50;;;5.51;92.04
58245;BME280;44550;43.864;25.986;2022-12-26T21:28:08;101950.63;;;5.76;91.88
58245;BME280;44550;43.864;25.986;2022-12-26T21:32:09;101949.81;;;5.77;89.68
58245;BME280;44550;43.864;25.986;2022-12-26T21:36:09;101939.03;;;5.87;89.59
58245;BME280;44550;43.864;25.986;2022-12-26T21:40:09;101934.56;;;5.85;88.41
58245;BME280;44550;43.864;25.986;2022-12-26T21:44:08;101928.47;;;5.65;88.79
58245;BME280;44550;43.864;25.986;2022-12-26T21:48:10;101919.97;;;5.12;90.76